sensor_id;sensor_type;location;lat;lon;timestamp;P1;durP1;ratioP1;P2;durP2;ratioP2
9117;SDS011;4594;50.994;7.126;2023-04-22T00:01:42;3.97;;;3.77;;
9117;SDS011;4594;50.994;7.126;2023-04-22T00:04:08;3.90;;;3.70;;
9117;SDS011;4594;50.994;7.126;2023-04-22T00:06:34;3.97;;;3.77;;
9117;SDS011;4594;50.994;7.126;2023-04-22T00:09:00;4.07;;;3.77;;
9117;SDS011;4594;50.994;7.126;2023-04-22T00:11:26;4.33;;;4.03;;
9117;SDS011;4594;50.994;7.126;2023-04-22T00:13:52;4.63;;;4.17;;
9117;SDS011;4594;50.994;7.126;2023-04-22T00:16:18;4.47;;;4.17;;
9117;SDS011;4594;50.994;7.126;2023-04-22T00:18:43;4.03;;;3.83;;
9117;SDS011;4594;50.994;7.126;2023-04-22T00:21:09;4.53;;;4.23;;
9117;SDS011;4594;50.994;7.126;2023-04-22T00:23:35;4.50;;;4.10;;
9117;SDS011;4594;50.994;7.126;2023-04-22T00:26:01;4.13;;;3.93;;
9117;SDS011;4594;50.994;7.126;2023-04-22T00:28:27;4.00;;;3.70;;
9117;SDS011;4594;50.994;7.126;2023-04-22T00:30:53;4.70;;;4.30;;
9117;SDS011;4594;50.994;7.126;2023-04-22T00:33:19;4.13;;;3.57;;
9117;SDS011;4594;50.994;7.126;2023-04-22T00:35:47;3.90;;;3.60;;
9117;SDS011;4594;50.994;7.126;2023-04-22T00:38:13;3.90;;;3.57;;
9117;SDS011;4594;50.994;7.126;2023-04-22T00:40:39;3.93;;;3.70;;
9117;SDS011;4594;50.994;7.126;2023-04-22T00:43:04;3.90;;;3.70;;
9117;SDS011;4594;50.994;7.126;2023-04-22T00:45:32;3.97;;;3.67;;
9117;SDS011;4594;50.994;7.126;2023-04-22T00:48:01;3.50;;;3.20;;
9117;SDS011;4594;50.994;7.126;2023-04-22T00:50:26;3.83;;;3.53;;
9117;SDS011;4594;50.994;7.126;2023-04-22T00:52:52;3.83;;;3.63;;
9117;SDS011;4594;50.994;7.126;2023-04-22T00:55:18;4.13;;;3.90;;
9117;SDS011;4594;50.994;7.126;2023-04-22T00:57:44;5.27;;;3.80;;
9117;SDS011;4594;50.994;7.126;2023-04-22T01:00:12;3.90;;;3.60;;
9117;SDS011;4594;50.994;7.126;2023-04-22T01:02:38;4.37;;;3.90;;
9117;SDS011;4594;50.994;7.126;2023-04-22T01:05:04;3.37;;;3.17;;
9117;SDS011;4594;50.994;7.126;2023-04-22T01:07:33;4.00;;;3.70;;
9117;SDS011;4594;50.994;7.126;2023-04-22T01:10:00;4.33;;;4.03;;
9117;SDS011;4594;50.994;7.126;2023-04-22T01:12:28;3.60;;;3.40;;
9117;SDS011;4594;50.994;7.126;2023-04-22T01:14:54;3.63;;;3.43;;
9117;SDS011;4594;50.994;7.126;2023-04-22T01:17:20;6.73;;;4.10;;
9117;SDS011;4594;50.994;7.126;2023-04-22T01:19:46;3.57;;;3.37;;
9117;SDS011;4594;50.994;7.126;2023-04-22T01:22:13;4.20;;;3.97;;
9117;SDS011;4594;50.994;7.126;2023-04-22T01:24:39;3.83;;;3.53;;
9117;SDS011;4594;50.994;7.126;2023-04-22T01:27:05;3.77;;;3.57;;
9117;SDS011;4594;50.994;7.126;2023-04-22T01:29:32;3.90;;;3.70;;
9117;SDS011;4594;50.994;7.126;2023-04-22T01:32:02;4.07;;;3.63;;
9117;SDS011;4594;50.994;7.126;2023-04-22T01:34:29;3.63;;;3.43;;
9117;SDS011;4594;50.994;7.126;2023-04-22T01:36:56;3.67;;;3.37;;
9117;SDS011;4594;50.994;7.126;2023-04-22T01:39:21;4.00;;;3.60;;
9117;SDS011;4594;50.994;7.126;2023-04-22T01:41:47;4.37;;;4.07;;
9117;SDS011;4594;50.994;7.126;2023-04-22T01:44:14;3.67;;;3.43;;
9117;SDS011;4594;50.994;7.126;2023-04-22T01:46:40;3.93;;;3.70;;
9117;SDS011;4594;50.994;7.126;2023-04-22T01:49:06;3.73;;;3.43;;
9117;SDS011;4594;50.994;7.126;2023-04-22T01:51:31;3.50;;;3.23;;
9117;SDS011;4594;50.994;7.126;2023-04-22T01:53:57;3.73;;;3.53;;
9117;SDS011;4594;50.994;7.126;2023-04-22T01:56:23;3.77;;;3.57;;
9117;SDS011;4594;50.994;7.126;2023-04-22T01:58:49;3.30;;;3.20;;
9117;SDS011;4594;50.994;7.126;2023-04-22T02:01:14;4.00;;;3.60;;
9117;SDS011;4594;50.994;7.126;2023-04-22T02:03:40;3.83;;;3.63;;
9117;SDS011;4594;50.994;7.126;2023-04-22T02:06:06;3.67;;;3.47;;
9117;SDS011;4594;50.994;7.126;2023-04-22T02:08:32;3.50;;;3.30;;
9117;SDS011;4594;50.994;7.126;2023-04-22T02:10:57;3.80;;;3.50;;
9117;SDS011;4594;50.994;7.126;2023-04-22T02:13:24;3.37;;;3.17;;
9117;SDS011;4594;50.994;7.126;2023-04-22T02:15:51;3.53;;;3.33;;
9117;SDS011;4594;50.994;7.126;2023-04-22T02:18:17;3.93;;;3.57;;
9117;SDS011;4594;50.994;7.126;2023-04-22T02:20:43;3.23;;;3.13;;
9117;SDS011;4594;50.994;7.126;2023-04-22T02:23:09;3.83;;;3.63;;
9117;SDS011;4594;50.994;7.126;2023-04-22T02:25:35;3.80;;;3.60;;
9117;SDS011;4594;50.994;7.126;2023-04-22T02:28:02;3.77;;;3.50;;
9117;SDS011;4594;50.994;7.126;2023-04-22T02:30:28;7.13;;;3.57;;
9117;SDS011;4594;50.994;7.126;2023-04-22T02:32:53;3.87;;;3.57;;
9117;SDS011;4594;50.994;7.126;2023-04-22T02:35:20;3.40;;;3.17;;
9117;SDS011;4594;50.994;7.126;2023-04-22T02:37:45;3.23;;;3.13;;
9117;SDS011;4594;50.994;7.126;2023-04-22T02:40:11;3.90;;;3.70;;
9117;SDS011;4594;50.994;7.126;2023-04-22T02:42:37;3.57;;;3.37;;
9117;SDS011;4594;50.994;7.126;2023-04-22T02:45:03;3.93;;;3.67;;
9117;SDS011;4594;50.994;7.126;2023-04-22T02:47:32;3.37;;;3.17;;
9117;SDS011;4594;50.994;7.126;2023-04-22T02:49:58;3.60;;;3.40;;
9117;SDS011;4594;50.994;7.126;2023-04-22T02:52:24;3.43;;;3.23;;
9117;SDS011;4594;50.994;7.126;2023-04-22T02:54:49;3.73;;;3.33;;
9117;SDS011;4594;50.994;7.126;2023-04-22T02:57:15;3.87;;;3.63;;
9117;SDS011;4594;50.994;7.126;2023-04-22T02:59:40;3.67;;;3.43;;
9117;SDS011;4594;50.994;7.126;2023-04-22T03:02:06;3.53;;;3.33;;
9117;SDS011;4594;50.994;7.126;2023-04-22T03:04:34;3.53;;;3.33;;
9117;SDS011;4594;50.994;7.126;2023-04-22T03:07:00;3.50;;;3.40;;
9117;SDS011;4594;50.994;7.126;2023-04-22T03:09:27;3.30;;;3.10;;
9117;SDS011;4594;50.994;7.126;2023-04-22T03:11:52;3.70;;;3.40;;
9117;SDS011;4594;50.994;7.126;2023-04-22T03:14:18;4.00;;;3.70;;
9117;SDS011;4594;50.994;7.126;2023-04-22T03:16:44;3.83;;;3.60;;
9117;SDS011;4594;50.994;7.126;2023-04-22T03:19:10;3.40;;;3.17;;
9117;SDS011;4594;50.994;7.126;2023-04-22T03:21:35;3.30;;;3.10;;
9117;SDS011;4594;50.994;7.126;2023-04-22T03:24:01;3.00;;;2.90;;
9117;SDS011;4594;50.994;7.126;2023-04-22T03:26:27;3.73;;;3.53;;
9117;SDS011;4594;50.994;7.126;2023-04-22T03:28:53;3.87;;;3.50;;
9117;SDS011;4594;50.994;7.126;2023-04-22T03:31:18;3.60;;;3.30;;
9117;SDS011;4594;50.994;7.126;2023-04-22T03:33:44;3.50;;;3.30;;
9117;SDS011;4594;50.994;7.126;2023-04-22T03:36:10;3.40;;;3.20;;
9117;SDS011;4594;50.994;7.126;2023-04-22T03:38:35;3.53;;;3.30;;
9117;SDS011;4594;50.994;7.126;2023-04-22T03:41:01;3.60;;;3.40;;
9117;SDS011;4594;50.994;7.126;2023-04-22T03:43:27;3.33;;;3.10;;
9117;SDS011;4594;50.994;7.126;2023-04-22T03:45:52;3.43;;;3.13;;
9117;SDS011;4594;50.994;7.126;2023-04-22T03:48:18;3.43;;;3.17;;
9117;SDS011;4594;50.994;7.126;2023-04-22T03:50:44;3.70;;;3.40;;
9117;SDS011;4594;50.994;7.126;2023-04-22T03:53:09;3.13;;;2.93;;
9117;SDS011;4594;50.994;7.126;2023-04-22T03:55:35;3.20;;;3.10;;
9117;SDS011;4594;50.994;7.126;2023-04-22T03:58:01;3.40;;;3.20;;
9117;SDS011;4594;50.994;7.126;2023-04-22T04:00:27;3.00;;;2.80;;
9117;SDS011;4594;50.994;7.126;2023-04-22T04:02:52;2.93;;;2.83;;
9117;SDS011;4594;50.994;7.126;2023-04-22T04:05:18;3.03;;;2.93;;
9117;SDS011;4594;50.994;7.126;2023-04-22T04:07:44;3.17;;;3.07;;
9117;SDS011;4594;50.994;7.126;2023-04-22T04:10:10;3.20;;;3.10;;
9117;SDS011;4594;50.994;7.126;2023-04-22T04:12:36;2.90;;;2.80;;
9117;SDS011;4594;50.994;7.126;2023-04-22T04:15:01;3.23;;;3.13;;
9117;SDS011;4594;50.994;7.126;2023-04-22T04:17:28;3.03;;;2.93;;
9117;SDS011;4594;50.994;7.126;2023-04-22T04:19:54;3.07;;;2.97;;
9117;SDS011;4594;50.994;7.126;2023-04-22T04:22:20;2.80;;;2.70;;
9117;SDS011;4594;50.994;7.126;2023-04-22T04:24:46;3.00;;;2.90;;
9117;SDS011;4594;50.994;7.126;2023-04-22T04:27:12;3.20;;;3.00;;
9117;SDS011;4594;50.994;7.126;2023-04-22T04:29:38;7.17;;;3.40;;
9117;SDS011;4594;50.994;7.126;2023-04-22T04:32:06;3.20;;;2.90;;
9117;SDS011;4594;50.994;7.126;2023-04-22T04:34:32;3.37;;;3.17;;
9117;SDS011;4594;50.994;7.126;2023-04-22T04:36:58;3.23;;;3.03;;
9117;SDS011;4594;50.994;7.126;2023-04-22T04:39:25;2.87;;;2.77;;
9117;SDS011;4594;50.994;7.126;2023-04-22T04:41:53;3.63;;;3.07;;
9117;SDS011;4594;50.994;7.126;2023-04-22T04:44:19;3.00;;;2.90;;
9117;SDS011;4594;50.994;7.126;2023-04-22T04:46:50;3.00;;;2.90;;
9117;SDS011;4594;50.994;7.126;2023-04-22T04:49:16;3.50;;;3.33;;
9117;SDS011;4594;50.994;7.126;2023-04-22T04:51:42;3.10;;;2.90;;
9117;SDS011;4594;50.994;7.126;2023-04-22T04:54:08;2.90;;;2.80;;
9117;SDS011;4594;50.994;7.126;2023-04-22T04:56:33;3.00;;;2.90;;
9117;SDS011;4594;50.994;7.126;2023-04-22T04:58:59;2.73;;;2.63;;
9117;SDS011;4594;50.994;7.126;2023-04-22T05:01:25;2.77;;;2.67;;
9117;SDS011;4594;50.994;7.126;2023-04-22T05:03:50;2.90;;;2.80;;
9117;SDS011;4594;50.994;7.126;2023-04-22T05:06:16;3.20;;;3.00;;
9117;SDS011;4594;50.994;7.126;2023-04-22T05:08:42;2.80;;;2.67;;
9117;SDS011;4594;50.994;7.126;2023-04-22T05:11:08;2.87;;;2.77;;
9117;SDS011;4594;50.994;7.126;2023-04-22T05:13:33;3.10;;;2.90;;
9117;SDS011;4594;50.994;7.126;2023-04-22T05:15:59;2.80;;;2.70;;
9117;SDS011;4594;50.994;7.126;2023-04-22T05:18:25;2.60;;;2.50;;
9117;SDS011;4594;50.994;7.126;2023-04-22T05:20:50;3.00;;;2.90;;
9117;SDS011;4594;50.994;7.126;2023-04-22T05:23:16;2.80;;;2.60;;
9117;SDS011;4594;50.994;7.126;2023-04-22T05:25:42;2.90;;;2.80;;
9117;SDS011;4594;50.994;7.126;2023-04-22T05:28:08;3.03;;;2.87;;
9117;SDS011;4594;50.994;7.126;2023-04-22T05:30:33;5.27;;;2.97;;
9117;SDS011;4594;50.994;7.126;2023-04-22T05:32:59;2.80;;;2.70;;
9117;SDS011;4594;50.994;7.126;2023-04-22T05:35:25;2.77;;;2.67;;
9117;SDS011;4594;50.994;7.126;2023-04-22T05:37:51;2.63;;;2.53;;
9117;SDS011;4594;50.994;7.126;2023-04-22T05:40:17;2.83;;;2.73;;
9117;SDS011;4594;50.994;7.126;2023-04-22T05:42:42;2.67;;;2.57;;
9117;SDS011;4594;50.994;7.126;2023-04-22T05:45:08;3.00;;;2.80;;
9117;SDS011;4594;50.994;7.126;2023-04-22T05:47:34;4.43;;;2.93;;
9117;SDS011;4594;50.994;7.126;2023-04-22T05:50:00;2.60;;;2.50;;
9117;SDS011;4594;50.994;7.126;2023-04-22T05:52:27;2.50;;;2.40;;
9117;SDS011;4594;50.994;7.126;2023-04-22T05:54:53;2.60;;;2.50;;
9117;SDS011;4594;50.994;7.126;2023-04-22T05:57:19;2.60;;;2.50;;
9117;SDS011;4594;50.994;7.126;2023-04-22T05:59:44;7.40;;;2.60;;
9117;SDS011;4594;50.994;7.126;2023-04-22T06:02:10;2.40;;;2.30;;
9117;SDS011;4594;50.994;7.126;2023-04-22T06:04:36;3.23;;;2.73;;
9117;SDS011;4594;50.994;7.126;2023-04-22T06:07:02;3.07;;;2.37;;
9117;SDS011;4594;50.994;7.126;2023-04-22T06:09:28;2.47;;;2.30;;
9117;SDS011;4594;50.994;7.126;2023-04-22T06:11:53;2.60;;;2.40;;
9117;SDS011;4594;50.994;7.126;2023-04-22T06:14:19;2.50;;;2.40;;
9117;SDS011;4594;50.994;7.126;2023-04-22T06:16:45;2.17;;;2.17;;
9117;SDS011;4594;50.994;7.126;2023-04-22T06:19:10;2.57;;;2.47;;
9117;SDS011;4594;50.994;7.126;2023-04-22T06:21:36;3.47;;;2.60;;
9117;SDS011;4594;50.994;7.126;2023-04-22T06:24:04;2.70;;;2.50;;
9117;SDS011;4594;50.994;7.126;2023-04-22T06:26:30;2.40;;;2.37;;
9117;SDS011;4594;50.994;7.126;2023-04-22T06:28:56;2.30;;;2.13;;
9117;SDS011;4594;50.994;7.126;2023-04-22T06:31:22;2.73;;;2.53;;
9117;SDS011;4594;50.994;7.126;2023-04-22T06:33:47;2.00;;;2.00;;
9117;SDS011;4594;50.994;7.126;2023-04-22T06:36:13;2.77;;;2.57;;
9117;SDS011;4594;50.994;7.126;2023-04-22T06:38:39;2.50;;;2.30;;
9117;SDS011;4594;50.994;7.126;2023-04-22T06:41:04;2.30;;;2.30;;
9117;SDS011;4594;50.994;7.126;2023-04-22T06:43:30;2.70;;;2.50;;
9117;SDS011;4594;50.994;7.126;2023-04-22T06:45:56;2.70;;;2.60;;
9117;SDS011;4594;50.994;7.126;2023-04-22T06:48:22;2.93;;;2.20;;
9117;SDS011;4594;50.994;7.126;2023-04-22T06:50:48;2.30;;;2.20;;
9117;SDS011;4594;50.994;7.126;2023-04-22T06:53:15;2.33;;;2.20;;
9117;SDS011;4594;50.994;7.126;2023-04-22T06:55:40;2.00;;;2.00;;
9117;SDS011;4594;50.994;7.126;2023-04-22T06:58:06;2.37;;;2.17;;
9117;SDS011;4594;50.994;7.126;2023-04-22T07:00:32;2.00;;;1.90;;
9117;SDS011;4594;50.994;7.126;2023-04-22T07:02:58;1.90;;;1.90;;
9117;SDS011;4594;50.994;7.126;2023-04-22T07:05:23;1.83;;;1.73;;
9117;SDS011;4594;50.994;7.126;2023-04-22T07:07:49;2.23;;;2.13;;
9117;SDS011;4594;50.994;7.126;2023-04-22T07:10:15;1.97;;;1.87;;
9117;SDS011;4594;50.994;7.126;2023-04-22T07:12:41;1.70;;;1.60;;
9117;SDS011;4594;50.994;7.126;2023-04-22T07:15:06;1.53;;;1.53;;
9117;SDS011;4594;50.994;7.126;2023-04-22T07:17:33;1.80;;;1.70;;
9117;SDS011;4594;50.994;7.126;2023-04-22T07:19:58;1.57;;;1.57;;
9117;SDS011;4594;50.994;7.126;2023-04-22T07:22:24;1.53;;;1.53;;
9117;SDS011;4594;50.994;7.126;2023-04-22T07:24:50;1.50;;;1.50;;
9117;SDS011;4594;50.994;7.126;2023-04-22T07:27:15;2.67;;;1.40;;
9117;SDS011;4594;50.994;7.126;2023-04-22T07:29:41;1.50;;;1.50;;
9117;SDS011;4594;50.994;7.126;2023-04-22T07:32:07;1.70;;;1.60;;
9117;SDS011;4594;50.994;7.126;2023-04-22T07:34:33;3.67;;;1.70;;
9117;SDS011;4594;50.994;7.126;2023-04-22T07:36:59;1.63;;;1.53;;
9117;SDS011;4594;50.994;7.126;2023-04-22T07:39:25;1.47;;;1.47;;
9117;SDS011;4594;50.994;7.126;2023-04-22T07:41:51;1.57;;;1.50;;
9117;SDS011;4594;50.994;7.126;2023-04-22T07:44:17;1.40;;;1.40;;
9117;SDS011;4594;50.994;7.126;2023-04-22T07:46:45;1.90;;;1.80;;
9117;SDS011;4594;50.994;7.126;2023-04-22T07:49:12;2.57;;;1.67;;
9117;SDS011;4594;50.994;7.126;2023-04-22T07:51:38;1.40;;;1.40;;
9117;SDS011;4594;50.994;7.126;2023-04-22T07:54:05;1.80;;;1.57;;
9117;SDS011;4594;50.994;7.126;2023-04-22T09:00:56;1.67;;;1.30;;
9117;SDS011;4594;50.994;7.126;2023-04-22T09:03:22;1.83;;;1.43;;
9117;SDS011;4594;50.994;7.126;2023-04-22T09:05:48;1.40;;;1.40;;
9117;SDS011;4594;50.994;7.126;2023-04-22T09:08:17;1.50;;;1.50;;
9117;SDS011;4594;50.994;7.126;2023-04-22T09:10:44;12.80;;;1.30;;
9117;SDS011;4594;50.994;7.126;2023-04-22T09:13:09;1.40;;;1.40;;
9117;SDS011;4594;50.994;7.126;2023-04-22T09:15:38;3.40;;;1.47;;
9117;SDS011;4594;50.994;7.126;2023-04-22T09:18:04;1.37;;;1.30;;
9117;SDS011;4594;50.994;7.126;2023-04-22T09:20:32;1.30;;;1.20;;
9117;SDS011;4594;50.994;7.126;2023-04-22T09:23:01;2.40;;;1.30;;
9117;SDS011;4594;50.994;7.126;2023-04-22T09:25:29;1.20;;;1.10;;
9117;SDS011;4594;50.994;7.126;2023-04-22T09:27:59;1.43;;;1.33;;
9117;SDS011;4594;50.994;7.126;2023-04-22T09:32:56;1.10;;;1.00;;
9117;SDS011;4594;50.994;7.126;2023-04-22T09:35:25;1.73;;;1.10;;
9117;SDS011;4594;50.994;7.126;2023-04-22T09:38:00;1.27;;;1.17;;
9117;SDS011;4594;50.994;7.126;2023-04-22T09:40:29;6.57;;;1.63;;
9117;SDS011;4594;50.994;7.126;2023-04-22T09:42:56;1.10;;;1.10;;
9117;SDS011;4594;50.994;7.126;2023-04-22T09:45:30;1.30;;;0.97;;
9117;SDS011;4594;50.994;7.126;2023-04-22T09:47:59;1.43;;;1.40;;
9117;SDS011;4594;50.994;7.126;2023-04-22T09:50:44;2.80;;;1.33;;
9117;SDS011;4594;50.994;7.126;2023-04-22T09:53:21;1.47;;;0.93;;
9117;SDS011;4594;50.994;7.126;2023-04-22T09:55:53;1.17;;;1.10;;
9117;SDS011;4594;50.994;7.126;2023-04-22T09:58:19;1.13;;;1.13;;
9117;SDS011;4594;50.994;7.126;2023-04-22T10:00:51;1.10;;;1.10;;
9117;SDS011;4594;50.994;7.126;2023-04-22T10:03:20;1.47;;;1.17;;
9117;SDS011;4594;50.994;7.126;2023-04-22T10:05:46;1.10;;;1.00;;
9117;SDS011;4594;50.994;7.126;2023-04-22T10:08:13;1.00;;;1.00;;
9117;SDS011;4594;50.994;7.126;2023-04-22T10:10:40;1.40;;;1.30;;
9117;SDS011;4594;50.994;7.126;2023-04-22T10:13:07;1.33;;;1.23;;
9117;SDS011;4594;50.994;7.126;2023-04-22T10:15:34;1.40;;;1.30;;
9117;SDS011;4594;50.994;7.126;2023-04-22T10:18:05;1.10;;;1.10;;
9117;SDS011;4594;50.994;7.126;2023-04-22T10:20:36;1.30;;;1.20;;
9117;SDS011;4594;50.994;7.126;2023-04-22T10:23:10;8.40;;;1.20;;
9117;SDS011;4594;50.994;7.126;2023-04-22T10:25:42;1.43;;;1.30;;
9117;SDS011;4594;50.994;7.126;2023-04-22T10:28:18;1.57;;;1.47;;
9117;SDS011;4594;50.994;7.126;2023-04-22T10:30:46;2.07;;;1.97;;
9117;SDS011;4594;50.994;7.126;2023-04-22T10:41:23;1.60;;;1.50;;
9117;SDS011;4594;50.994;7.126;2023-04-22T10:43:56;2.07;;;1.20;;
9117;SDS011;4594;50.994;7.126;2023-04-22T10:48:56;2.10;;;1.13;;
9117;SDS011;4594;50.994;7.126;2023-04-22T10:51:36;1.30;;;1.20;;
9117;SDS011;4594;50.994;7.126;2023-04-22T10:57:07;1.60;;;1.50;;
9117;SDS011;4594;50.994;7.126;2023-04-22T10:59:45;1.37;;;1.27;;
9117;SDS011;4594;50.994;7.126;2023-04-22T11:02:14;1.00;;;1.00;;
9117;SDS011;4594;50.994;7.126;2023-04-22T11:04:41;1.07;;;1.03;;
9117;SDS011;4594;50.994;7.126;2023-04-22T11:10:01;1.20;;;1.20;;
9117;SDS011;4594;50.994;7.126;2023-04-22T11:15:10;1.27;;;1.20;;
9117;SDS011;4594;50.994;7.126;2023-04-22T11:17:42;1.43;;;1.20;;
9117;SDS011;4594;50.994;7.126;2023-04-22T11:20:14;1.10;;;1.10;;
9117;SDS011;4594;50.994;7.126;2023-04-22T11:22:52;1.30;;;1.13;;
9117;SDS011;4594;50.994;7.126;2023-04-22T11:25:20;2.93;;;2.53;;
9117;SDS011;4594;50.994;7.126;2023-04-22T11:27:47;1.63;;;1.53;;
9117;SDS011;4594;50.994;7.126;2023-04-22T11:30:17;1.77;;;1.60;;
9117;SDS011;4594;50.994;7.126;2023-04-22T11:32:46;5.50;;;1.90;;
9117;SDS011;4594;50.994;7.126;2023-04-22T11:37:44;1.07;;;1.00;;
9117;SDS011;4594;50.994;7.126;2023-04-22T11:40:22;1.70;;;1.50;;
9117;SDS011;4594;50.994;7.126;2023-04-22T11:42:54;1.90;;;1.60;;
9117;SDS011;4594;50.994;7.126;2023-04-22T11:45:22;1.73;;;1.50;;
9117;SDS011;4594;50.994;7.126;2023-04-22T11:47:49;1.47;;;1.43;;
9117;SDS011;4594;50.994;7.126;2023-04-22T11:50:17;1.40;;;1.30;;
9117;SDS011;4594;50.994;7.126;2023-04-22T11:52:59;4.43;;;2.00;;
9117;SDS011;4594;50.994;7.126;2023-04-22T11:55:43;1.57;;;1.47;;
9117;SDS011;4594;50.994;7.126;2023-04-22T11:58:13;1.40;;;1.40;;
9117;SDS011;4594;50.994;7.126;2023-04-22T12:00:42;1.70;;;1.60;;
9117;SDS011;4594;50.994;7.126;2023-04-22T12:03:17;1.40;;;1.40;;
9117;SDS011;4594;50.994;7.126;2023-04-22T12:05:59;1.70;;;1.60;;
9117;SDS011;4594;50.994;7.126;2023-04-22T12:08:32;8.33;;;1.77;;
9117;SDS011;4594;50.994;7.126;2023-04-22T12:11:06;2.93;;;2.20;;
9117;SDS011;4594;50.994;7.126;2023-04-22T12:18:48;3.23;;;2.87;;
9117;SDS011;4594;50.994;7.126;2023-04-22T12:21:20;5.73;;;3.53;;
9117;SDS011;4594;50.994;7.126;2023-04-22T12:23:56;4.30;;;2.93;;
9117;SDS011;4594;50.994;7.126;2023-04-22T12:26:35;5.83;;;4.57;;
9117;SDS011;4594;50.994;7.126;2023-04-22T12:29:03;3.40;;;3.10;;
9117;SDS011;4594;50.994;7.126;2023-04-22T12:31:29;4.57;;;3.07;;
9117;SDS011;4594;50.994;7.126;2023-04-22T12:33:55;3.30;;;3.00;;
9117;SDS011;4594;50.994;7.126;2023-04-22T12:36:21;3.10;;;2.60;;
9117;SDS011;4594;50.994;7.126;2023-04-22T12:38:47;2.60;;;2.50;;
9117;SDS011;4594;50.994;7.126;2023-04-22T12:41:13;3.70;;;2.00;;
9117;SDS011;4594;50.994;7.126;2023-04-22T12:43:42;3.20;;;2.20;;
9117;SDS011;4594;50.994;7.126;2023-04-22T12:46:08;1.97;;;1.87;;
9117;SDS011;4594;50.994;7.126;2023-04-22T12:48:34;1.80;;;1.80;;
9117;SDS011;4594;50.994;7.126;2023-04-22T12:51:01;4.30;;;3.07;;
9117;SDS011;4594;50.994;7.126;2023-04-22T12:53:28;10.10;;;4.73;;
9117;SDS011;4594;50.994;7.126;2023-04-22T12:55:54;10.17;;;5.73;;
9117;SDS011;4594;50.994;7.126;2023-04-22T12:58:20;13.20;;;6.97;;
9117;SDS011;4594;50.994;7.126;2023-04-22T13:00:46;7.40;;;5.17;;
9117;SDS011;4594;50.994;7.126;2023-04-22T13:03:12;3.70;;;3.33;;
9117;SDS011;4594;50.994;7.126;2023-04-22T13:05:37;3.33;;;3.07;;
9117;SDS011;4594;50.994;7.126;2023-04-22T13:08:04;7.33;;;2.80;;
9117;SDS011;4594;50.994;7.126;2023-04-22T13:10:30;4.07;;;3.57;;
9117;SDS011;4594;50.994;7.126;2023-04-22T13:12:56;3.37;;;2.87;;
9117;SDS011;4594;50.994;7.126;2023-04-22T13:15:22;2.63;;;2.40;;
9117;SDS011;4594;50.994;7.126;2023-04-22T13:17:50;2.50;;;2.30;;
9117;SDS011;4594;50.994;7.126;2023-04-22T13:20:16;2.60;;;2.40;;
9117;SDS011;4594;50.994;7.126;2023-04-22T13:22:42;2.83;;;2.50;;
9117;SDS011;4594;50.994;7.126;2023-04-22T13:25:08;2.07;;;1.90;;
9117;SDS011;4594;50.994;7.126;2023-04-22T13:27:34;2.47;;;2.27;;
9117;SDS011;4594;50.994;7.126;2023-04-22T13:30:00;4.83;;;3.07;;
9117;SDS011;4594;50.994;7.126;2023-04-22T13:32:28;4.50;;;4.10;;
9117;SDS011;4594;50.994;7.126;2023-04-22T13:34:53;10.53;;;5.50;;
9117;SDS011;4594;50.994;7.126;2023-04-22T13:37:19;6.23;;;4.40;;
9117;SDS011;4594;50.994;7.126;2023-04-22T13:39:45;3.70;;;3.37;;
9117;SDS011;4594;50.994;7.126;2023-04-22T13:42:11;3.20;;;3.00;;
9117;SDS011;4594;50.994;7.126;2023-04-22T13:44:38;2.87;;;2.60;;
9117;SDS011;4594;50.994;7.126;2023-04-22T13:47:04;2.30;;;2.07;;
9117;SDS011;4594;50.994;7.126;2023-04-22T13:49:29;4.43;;;2.30;;
9117;SDS011;4594;50.994;7.126;2023-04-22T13:51:55;3.00;;;2.70;;
9117;SDS011;4594;50.994;7.126;2023-04-22T13:54:21;3.20;;;3.00;;
9117;SDS011;4594;50.994;7.126;2023-04-22T13:56:47;3.37;;;3.07;;
9117;SDS011;4594;50.994;7.126;2023-04-22T13:59:14;2.70;;;2.30;;
9117;SDS011;4594;50.994;7.126;2023-04-22T14:01:40;2.73;;;2.00;;
9117;SDS011;4594;50.994;7.126;2023-04-22T14:04:06;2.57;;;2.37;;
9117;SDS011;4594;50.994;7.126;2023-04-22T14:06:31;1.67;;;1.57;;
9117;SDS011;4594;50.994;7.126;2023-04-22T14:08:57;2.57;;;2.07;;
9117;SDS011;4594;50.994;7.126;2023-04-22T14:11:23;1.93;;;1.83;;
9117;SDS011;4594;50.994;7.126;2023-04-22T14:13:49;2.07;;;1.97;;
9117;SDS011;4594;50.994;7.126;2023-04-22T14:16:15;2.67;;;2.47;;
9117;SDS011;4594;50.994;7.126;2023-04-22T14:18:42;3.03;;;2.77;;
9117;SDS011;4594;50.994;7.126;2023-04-22T14:21:09;4.03;;;3.70;;
9117;SDS011;4594;50.994;7.126;2023-04-22T14:23:37;7.60;;;4.77;;
9117;SDS011;4594;50.994;7.126;2023-04-22T14:26:08;5.47;;;4.37;;
9117;SDS011;4594;50.994;7.126;2023-04-22T14:28:36;4.43;;;3.90;;
9117;SDS011;4594;50.994;7.126;2023-04-22T14:31:04;3.50;;;3.13;;
9117;SDS011;4594;50.994;7.126;2023-04-22T14:33:31;3.00;;;2.20;;
9117;SDS011;4594;50.994;7.126;2023-04-22T14:35:56;7.03;;;2.30;;
9117;SDS011;4594;50.994;7.126;2023-04-22T14:38:22;2.00;;;1.90;;
9117;SDS011;4594;50.994;7.126;2023-04-22T14:40:48;2.70;;;2.23;;
9117;SDS011;4594;50.994;7.126;2023-04-22T14:43:15;2.13;;;1.87;;
9117;SDS011;4594;50.994;7.126;2023-04-22T14:45:42;2.73;;;2.10;;
9117;SDS011;4594;50.994;7.126;2023-04-22T14:48:09;3.07;;;2.30;;
9117;SDS011;4594;50.994;7.126;2023-04-22T14:50:35;2.77;;;2.50;;
9117;SDS011;4594;50.994;7.126;2023-04-22T14:53:01;2.33;;;2.13;;
9117;SDS011;4594;50.994;7.126;2023-04-22T14:55:27;2.27;;;2.17;;
9117;SDS011;4594;50.994;7.126;2023-04-22T14:57:53;2.33;;;2.17;;
9117;SDS011;4594;50.994;7.126;2023-04-22T15:00:20;3.63;;;2.50;;
9117;SDS011;4594;50.994;7.126;2023-04-22T15:02:47;2.60;;;2.40;;
9117;SDS011;4594;50.994;7.126;2023-04-22T15:05:13;3.03;;;2.40;;
9117;SDS011;4594;50.994;7.126;2023-04-22T15:07:39;2.07;;;1.97;;
9117;SDS011;4594;50.994;7.126;2023-04-22T15:10:04;2.50;;;2.30;;
9117;SDS011;4594;50.994;7.126;2023-04-22T15:12:31;2.63;;;2.43;;
9117;SDS011;4594;50.994;7.126;2023-04-22T15:14:56;2.87;;;2.40;;
9117;SDS011;4594;50.994;7.126;2023-04-22T15:17:22;2.67;;;2.50;;
9117;SDS011;4594;50.994;7.126;2023-04-22T15:19:48;2.67;;;2.47;;
9117;SDS011;4594;50.994;7.126;2023-04-22T15:22:14;2.60;;;2.50;;
9117;SDS011;4594;50.994;7.126;2023-04-22T15:24:39;2.67;;;2.57;;
9117;SDS011;4594;50.994;7.126;2023-04-22T15:27:05;5.97;;;3.10;;
9117;SDS011;4594;50.994;7.126;2023-04-22T15:29:31;4.57;;;3.93;;
9117;SDS011;4594;50.994;7.126;2023-04-22T15:31:57;3.80;;;3.33;;
9117;SDS011;4594;50.994;7.126;2023-04-22T15:34:23;3.10;;;2.90;;
9117;SDS011;4594;50.994;7.126;2023-04-22T15:36:48;2.50;;;2.40;;
9117;SDS011;4594;50.994;7.126;2023-04-22T15:39:14;2.27;;;2.17;;
9117;SDS011;4594;50.994;7.126;2023-04-22T15:41:40;2.30;;;2.10;;
9117;SDS011;4594;50.994;7.126;2023-04-22T15:44:07;2.03;;;1.93;;
9117;SDS011;4594;50.994;7.126;2023-04-22T15:46:34;2.03;;;2.03;;
9117;SDS011;4594;50.994;7.126;2023-04-22T15:49:01;2.53;;;2.40;;
9117;SDS011;4594;50.994;7.126;2023-04-22T15:51:27;2.97;;;2.40;;
9117;SDS011;4594;50.994;7.126;2023-04-22T15:53:55;2.50;;;2.20;;
9117;SDS011;4594;50.994;7.126;2023-04-22T15:56:21;2.13;;;2.03;;
9117;SDS011;4594;50.994;7.126;2023-04-22T15:58:48;2.10;;;2.00;;
9117;SDS011;4594;50.994;7.126;2023-04-22T16:01:15;3.33;;;2.87;;
9117;SDS011;4594;50.994;7.126;2023-04-22T16:03:42;4.20;;;2.90;;
9117;SDS011;4594;50.994;7.126;2023-04-22T16:06:08;3.67;;;3.37;;
9117;SDS011;4594;50.994;7.126;2023-04-22T16:08:35;15.67;;;8.77;;
9117;SDS011;4594;50.994;7.126;2023-04-22T16:11:02;9.30;;;6.37;;
9117;SDS011;4594;50.994;7.126;2023-04-22T16:13:28;11.80;;;7.93;;
9117;SDS011;4594;50.994;7.126;2023-04-22T16:15:55;8.90;;;6.37;;
9117;SDS011;4594;50.994;7.126;2023-04-22T16:18:21;5.67;;;5.17;;
9117;SDS011;4594;50.994;7.126;2023-04-22T16:20:47;5.13;;;3.90;;
9117;SDS011;4594;50.994;7.126;2023-04-22T16:23:13;3.83;;;3.53;;
9117;SDS011;4594;50.994;7.126;2023-04-22T16:25:39;5.23;;;3.93;;
9117;SDS011;4594;50.994;7.126;2023-04-22T16:28:05;5.53;;;3.50;;
9117;SDS011;4594;50.994;7.126;2023-04-22T16:30:32;3.57;;;3.23;;
9117;SDS011;4594;50.994;7.126;2023-04-22T16:32:58;3.30;;;3.00;;
9117;SDS011;4594;50.994;7.126;2023-04-22T16:35:24;3.50;;;3.10;;
9117;SDS011;4594;50.994;7.126;2023-04-22T16:37:50;4.23;;;2.90;;
9117;SDS011;4594;50.994;7.126;2023-04-22T16:40:15;2.93;;;2.70;;
9117;SDS011;4594;50.994;7.126;2023-04-22T16:42:41;2.33;;;2.23;;
9117;SDS011;4594;50.994;7.126;2023-04-22T16:45:07;3.23;;;2.90;;
9117;SDS011;4594;50.994;7.126;2023-04-22T16:47:33;2.97;;;2.60;;